sensor_id;sensor_type;location;lat;lon;timestamp;P1;durP1;ratioP1;P2;durP2;ratioP2
66581;SDS011;53438;48.898;2.308;2023-04-25T03:00:40;10.60;;;4.70;;
66581;SDS011;53438;48.898;2.308;2023-04-25T03:03:06;12.65;;;4.90;;
66581;SDS011;53438;48.898;2.308;2023-04-25T03:05:33;11.02;;;5.50;;
66581;SDS011;53438;48.898;2.308;2023-04-25T03:07:58;10.20;;;4.80;;
66581;SDS011;53438;48.898;2.308;2023-04-25T03:10:23;12.27;;;4.33;;
66581;SDS011;53438;48.898;2.308;2023-04-25T03:12:49;10.80;;;4.67;;
66581;SDS011;53438;48.898;2.308;2023-04-25T03:15:14;9.90;;;4.37;;
66581;SDS011;53438;48.898;2.308;2023-04-25T03:17:41;10.80;;;3.97;;
66581;SDS011;53438;48.898;2.308;2023-04-25T03:20:07;11.67;;;4.27;;
66581;SDS011;53438;48.898;2.308;2023-04-25T03:22:33;14.32;;;4.68;;
66581;SDS011;53438;48.898;2.308;2023-04-25T03:24:58;11.20;;;5.00;;
66581;SDS011;53438;48.898;2.308;2023-04-25T03:27:24;13.05;;;4.30;;
66581;SDS011;53438;48.898;2.308;2023-04-25T03:29:49;12.17;;;4.90;;
66581;SDS011;53438;48.898;2.308;2023-04-25T03:32:15;18.00;;;5.03;;
66581;SDS011;53438;48.898;2.308;2023-04-25T03:34:40;9.00;;;4.17;;
66581;SDS011;53438;48.898;2.308;2023-04-25T03:37:06;15.30;;;4.05;;
66581;SDS011;53438;48.898;2.308;2023-04-25T03:39:31;7.80;;;4.07;;
66581;SDS011;53438;48.898;2.308;2023-04-25T03:41:56;15.20;;;4.47;;
66581;SDS011;53438;48.898;2.308;2023-04-25T03:44:22;17.53;;;4.60;;
66581;SDS011;53438;48.898;2.308;2023-04-25T03:46:49;16.95;;;4.63;;
66581;SDS011;53438;48.898;2.308;2023-04-25T03:49:14;10.90;;;4.30;;
66581;SDS011;53438;48.898;2.308;2023-04-25T03:51:40;12.80;;;4.20;;
66581;SDS011;53438;48.898;2.308;2023-04-25T03:54:05;12.60;;;4.97;;
66581;SDS011;53438;48.898;2.308;2023-04-25T03:56:30;12.33;;;4.13;;
66581;SDS011;53438;48.898;2.308;2023-04-25T03:58:56;16.07;;;5.10;;
66581;SDS011;53438;48.898;2.308;2023-04-25T04:01:21;13.17;;;4.83;;
66581;SDS011;53438;48.898;2.308;2023-04-25T04:03:46;13.47;;;4.73;;
66581;SDS011;53438;48.898;2.308;2023-04-25T04:06:12;13.17;;;4.13;;
66581;SDS011;53438;48.898;2.308;2023-04-25T04:08:38;15.05;;;5.70;;
66581;SDS011;53438;48.898;2.308;2023-04-25T04:11:03;13.77;;;5.47;;
66581;SDS011;53438;48.898;2.308;2023-04-25T04:13:29;15.77;;;4.68;;
66581;SDS011;53438;48.898;2.308;2023-04-25T04:15:54;9.40;;;4.28;;
66581;SDS011;53438;48.898;2.308;2023-04-25T04:18:20;13.63;;;5.20;;
66581;SDS011;53438;48.898;2.308;2023-04-25T04:20:46;13.85;;;4.70;;
66581;SDS011;53438;48.898;2.308;2023-04-25T04:23:11;11.53;;;4.53;;
66581;SDS011;53438;48.898;2.308;2023-04-25T04:25:37;10.30;;;4.63;;
66581;SDS011;53438;48.898;2.308;2023-04-25T04:28:04;12.10;;;4.60;;
66581;SDS011;53438;48.898;2.308;2023-04-25T04:30:31;18.80;;;5.40;;
66581;SDS011;53438;48.898;2.308;2023-04-25T04:32:56;13.40;;;6.38;;
66581;SDS011;53438;48.898;2.308;2023-04-25T04:35:24;17.52;;;5.47;;
66581;SDS011;53438;48.898;2.308;2023-04-25T04:37:49;14.98;;;5.20;;
66581;SDS011;53438;48.898;2.308;2023-04-25T04:40:15;14.32;;;5.03;;
66581;SDS011;53438;48.898;2.308;2023-04-25T04:42:44;14.10;;;5.67;;
66581;SDS011;53438;48.898;2.308;2023-04-25T04:45:13;17.30;;;5.80;;
66581;SDS011;53438;48.898;2.308;2023-04-25T04:47:38;14.37;;;5.33;;
66581;SDS011;53438;48.898;2.308;2023-04-25T04:50:05;15.15;;;5.97;;
66581;SDS011;53438;48.898;2.308;2023-04-25T04:52:37;16.20;;;6.40;;
66581;SDS011;53438;48.898;2.308;2023-04-25T04:55:03;15.45;;;5.38;;
66581;SDS011;53438;48.898;2.308;2023-04-25T04:57:30;15.80;;;5.47;;
66581;SDS011;53438;48.898;2.308;2023-04-25T04:59:56;15.38;;;5.53;;
66581;SDS011;53438;48.898;2.308;2023-04-25T05:02:21;17.00;;;5.37;;
66581;SDS011;53438;48.898;2.308;2023-04-25T05:04:47;17.87;;;6.47;;
66581;SDS011;53438;48.898;2.308;2023-04-25T05:07:12;16.98;;;6.38;;
66581;SDS011;53438;48.898;2.308;2023-04-25T05:09:38;16.50;;;6.33;;
66581;SDS011;53438;48.898;2.308;2023-04-25T05:12:03;19.67;;;5.93;;
66581;SDS011;53438;48.898;2.308;2023-04-25T05:14:29;12.87;;;5.70;;
66581;SDS011;53438;48.898;2.308;2023-04-25T05:16:54;18.13;;;6.60;;
66581;SDS011;53438;48.898;2.308;2023-04-25T05:19:19;12.67;;;5.97;;
66581;SDS011;53438;48.898;2.308;2023-04-25T05:21:45;13.43;;;6.70;;
66581;SDS011;53438;48.898;2.308;2023-04-25T05:24:10;12.27;;;6.30;;
66581;SDS011;53438;48.898;2.308;2023-04-25T05:26:36;16.10;;;6.70;;
66581;SDS011;53438;48.898;2.308;2023-04-25T05:29:02;18.75;;;6.63;;
66581;SDS011;53438;48.898;2.308;2023-04-25T05:31:28;10.67;;;6.37;;
66581;SDS011;53438;48.898;2.308;2023-04-25T05:33:54;16.13;;;7.20;;
66581;SDS011;53438;48.898;2.308;2023-04-25T05:36:19;18.85;;;6.80;;
66581;SDS011;53438;48.898;2.308;2023-04-25T05:38:45;16.20;;;7.47;;
66581;SDS011;53438;48.898;2.308;2023-04-25T05:41:10;13.73;;;6.85;;
66581;SDS011;53438;48.898;2.308;2023-04-25T05:43:37;16.92;;;7.63;;
66581;SDS011;53438;48.898;2.308;2023-04-25T05:46:02;22.98;;;8.20;;
66581;SDS011;53438;48.898;2.308;2023-04-25T05:48:28;17.63;;;8.00;;
66581;SDS011;53438;48.898;2.308;2023-04-25T05:50:53;18.67;;;7.30;;
66581;SDS011;53438;48.898;2.308;2023-04-25T05:53:19;14.63;;;7.97;;
66581;SDS011;53438;48.898;2.308;2023-04-25T05:55:46;14.68;;;7.10;;
66581;SDS011;53438;48.898;2.308;2023-04-25T05:58:11;16.35;;;7.60;;
66581;SDS011;53438;48.898;2.308;2023-04-25T06:00:37;18.80;;;7.07;;
66581;SDS011;53438;48.898;2.308;2023-04-25T06:03:03;15.55;;;6.70;;
66581;SDS011;53438;48.898;2.308;2023-04-25T06:05:28;21.00;;;7.30;;
66581;SDS011;53438;48.898;2.308;2023-04-25T06:07:54;15.68;;;7.68;;
66581;SDS011;53438;48.898;2.308;2023-04-25T06:12:55;16.38;;;6.60;;
66581;SDS011;53438;48.898;2.308;2023-04-25T06:15:20;15.33;;;6.73;;
66581;SDS011;53438;48.898;2.308;2023-04-25T06:17:46;16.13;;;6.03;;
66581;SDS011;53438;48.898;2.308;2023-04-25T06:20:11;14.77;;;5.77;;
66581;SDS011;53438;48.898;2.308;2023-04-25T06:22:36;12.07;;;6.27;;
66581;SDS011;53438;48.898;2.308;2023-04-25T06:25:02;9.37;;;5.13;;
66581;SDS011;53438;48.898;2.308;2023-04-25T06:27:29;11.93;;;5.25;;
66581;SDS011;53438;48.898;2.308;2023-04-25T06:29:54;12.93;;;4.47;;
66581;SDS011;53438;48.898;2.308;2023-04-25T06:32:20;11.07;;;4.65;;
66581;SDS011;53438;48.898;2.308;2023-04-25T06:34:45;8.68;;;5.22;;
66581;SDS011;53438;48.898;2.308;2023-04-25T06:37:11;11.60;;;5.57;;
66581;SDS011;53438;48.898;2.308;2023-04-25T06:39:38;9.25;;;4.45;;
66581;SDS011;53438;48.898;2.308;2023-04-25T06:42:03;6.23;;;4.10;;
66581;SDS011;53438;48.898;2.308;2023-04-25T06:44:28;9.47;;;4.77;;
66581;SDS011;53438;48.898;2.308;2023-04-25T06:46:54;7.07;;;4.43;;
66581;SDS011;53438;48.898;2.308;2023-04-25T06:49:20;9.57;;;4.97;;
66581;SDS011;53438;48.898;2.308;2023-04-25T06:51:45;9.60;;;4.60;;
66581;SDS011;53438;48.898;2.308;2023-04-25T06:54:11;10.27;;;4.77;;
66581;SDS011;53438;48.898;2.308;2023-04-25T06:56:36;9.90;;;4.90;;
66581;SDS011;53438;48.898;2.308;2023-04-25T06:59:01;11.73;;;5.80;;
66581;SDS011;53438;48.898;2.308;2023-04-25T07:01:27;9.38;;;5.15;;
66581;SDS011;53438;48.898;2.308;2023-04-25T07:03:52;13.63;;;7.03;;
66581;SDS011;53438;48.898;2.308;2023-04-25T07:06:17;13.53;;;7.60;;
66581;SDS011;53438;48.898;2.308;2023-04-25T07:08:43;16.60;;;7.77;;
66581;SDS011;53438;48.898;2.308;2023-04-25T07:11:08;15.67;;;8.13;;
66581;SDS011;53438;48.898;2.308;2023-04-25T07:13:34;14.80;;;7.93;;
66581;SDS011;53438;48.898;2.308;2023-04-25T07:15:59;19.02;;;9.55;;
66581;SDS011;53438;48.898;2.308;2023-04-25T07:18:25;17.73;;;8.13;;
66581;SDS011;53438;48.898;2.308;2023-04-25T07:20:50;16.07;;;8.70;;
66581;SDS011;53438;48.898;2.308;2023-04-25T07:23:15;18.57;;;9.13;;
66581;SDS011;53438;48.898;2.308;2023-04-25T07:25:41;23.27;;;10.00;;
66581;SDS011;53438;48.898;2.308;2023-04-25T07:28:06;20.80;;;10.13;;
66581;SDS011;53438;48.898;2.308;2023-04-25T07:30:32;21.33;;;10.50;;
66581;SDS011;53438;48.898;2.308;2023-04-25T07:32:57;23.13;;;8.73;;
66581;SDS011;53438;48.898;2.308;2023-04-25T07:35:22;18.47;;;8.67;;
66581;SDS011;53438;48.898;2.308;2023-04-25T07:37:48;21.60;;;8.63;;
66581;SDS011;53438;48.898;2.308;2023-04-25T07:40:13;20.30;;;9.27;;
66581;SDS011;53438;48.898;2.308;2023-04-25T07:42:41;21.98;;;8.50;;
66581;SDS011;53438;48.898;2.308;2023-04-25T07:45:06;18.93;;;8.50;;
66581;SDS011;53438;48.898;2.308;2023-04-25T07:47:32;19.20;;;7.93;;
66581;SDS011;53438;48.898;2.308;2023-04-25T07:49:58;20.20;;;7.90;;
66581;SDS011;53438;48.898;2.308;2023-04-25T07:52:23;16.13;;;7.63;;
66581;SDS011;53438;48.898;2.308;2023-04-25T07:54:50;21.55;;;7.78;;
66581;SDS011;53438;48.898;2.308;2023-04-25T07:57:16;17.10;;;8.18;;
66581;SDS011;53438;48.898;2.308;2023-04-25T07:59:42;23.77;;;9.17;;
66581;SDS011;53438;48.898;2.308;2023-04-25T08:02:07;22.73;;;8.10;;
66581;SDS011;53438;48.898;2.308;2023-04-25T08:04:32;14.20;;;8.07;;
66581;SDS011;53438;48.898;2.308;2023-04-25T08:06:58;17.63;;;7.80;;
66581;SDS011;53438;48.898;2.308;2023-04-25T08:09:23;17.10;;;7.40;;
66581;SDS011;53438;48.898;2.308;2023-04-25T08:11:49;19.43;;;7.70;;
66581;SDS011;53438;48.898;2.308;2023-04-25T08:14:14;20.97;;;7.67;;
66581;SDS011;53438;48.898;2.308;2023-04-25T08:16:39;15.93;;;7.27;;
66581;SDS011;53438;48.898;2.308;2023-04-25T08:19:07;18.30;;;7.47;;
66581;SDS011;53438;48.898;2.308;2023-04-25T08:21:32;16.57;;;8.10;;
66581;SDS011;53438;48.898;2.308;2023-04-25T08:23:58;17.08;;;7.95;;
66581;SDS011;53438;48.898;2.308;2023-04-25T08:26:23;16.03;;;8.00;;
66581;SDS011;53438;48.898;2.308;2023-04-25T08:28:50;14.82;;;6.57;;
66581;SDS011;53438;48.898;2.308;2023-04-25T08:31:15;22.83;;;7.10;;
66581;SDS011;53438;48.898;2.308;2023-04-25T08:33:41;13.10;;;6.47;;
66581;SDS011;53438;48.898;2.308;2023-04-25T08:36:06;12.53;;;6.23;;
66581;SDS011;53438;48.898;2.308;2023-04-25T08:38:31;14.35;;;5.43;;
66581;SDS011;53438;48.898;2.308;2023-04-25T08:40:57;14.53;;;6.13;;
66581;SDS011;53438;48.898;2.308;2023-04-25T08:43:25;14.18;;;6.30;;
66581;SDS011;53438;48.898;2.308;2023-04-25T08:45:51;17.10;;;5.93;;
66581;SDS011;53438;48.898;2.308;2023-04-25T08:48:19;17.92;;;6.75;;
66581;SDS011;53438;48.898;2.308;2023-04-25T08:50:51;15.93;;;5.83;;
66581;SDS011;53438;48.898;2.308;2023-04-25T08:53:21;17.48;;;6.50;;
66581;SDS011;53438;48.898;2.308;2023-04-25T08:55:50;16.25;;;7.65;;
66581;SDS011;53438;48.898;2.308;2023-04-25T08:58:18;17.93;;;7.10;;
66581;SDS011;53438;48.898;2.308;2023-04-25T09:00:45;15.48;;;6.50;;
66581;SDS011;53438;48.898;2.308;2023-04-25T09:03:13;17.17;;;7.07;;
66581;SDS011;53438;48.898;2.308;2023-04-25T09:05:39;24.58;;;6.75;;
66581;SDS011;53438;48.898;2.308;2023-04-25T09:08:05;13.43;;;5.72;;
66581;SDS011;53438;48.898;2.308;2023-04-25T09:10:31;16.10;;;5.97;;
66581;SDS011;53438;48.898;2.308;2023-04-25T09:13:06;17.75;;;5.80;;
66581;SDS011;53438;48.898;2.308;2023-04-25T09:15:47;14.82;;;5.03;;
66581;SDS011;53438;48.898;2.308;2023-04-25T09:18:14;11.70;;;5.82;;
66581;SDS011;53438;48.898;2.308;2023-04-25T09:20:47;16.90;;;5.13;;
66581;SDS011;53438;48.898;2.308;2023-04-25T09:23:14;10.93;;;5.07;;
66581;SDS011;53438;48.898;2.308;2023-04-25T09:25:39;12.95;;;4.88;;
66581;SDS011;53438;48.898;2.308;2023-04-25T09:28:05;14.60;;;5.60;;
66581;SDS011;53438;48.898;2.308;2023-04-25T09:30:32;12.13;;;5.10;;
66581;SDS011;53438;48.898;2.308;2023-04-25T09:33:05;12.95;;;5.20;;
66581;SDS011;53438;48.898;2.308;2023-04-25T09:35:36;17.33;;;5.10;;
66581;SDS011;53438;48.898;2.308;2023-04-25T09:38:06;17.10;;;5.88;;
66581;SDS011;53438;48.898;2.308;2023-04-25T09:40:33;10.07;;;4.30;;
66581;SDS011;53438;48.898;2.308;2023-04-25T09:42:58;15.60;;;5.30;;
66581;SDS011;53438;48.898;2.308;2023-04-25T09:45:24;15.00;;;4.97;;
66581;SDS011;53438;48.898;2.308;2023-04-25T09:47:49;16.50;;;5.13;;
66581;SDS011;53438;48.898;2.308;2023-04-25T09:50:15;19.17;;;5.65;;
66581;SDS011;53438;48.898;2.308;2023-04-25T09:52:42;15.98;;;6.22;;
66581;SDS011;53438;48.898;2.308;2023-04-25T09:55:08;13.73;;;5.40;;
66581;SDS011;53438;48.898;2.308;2023-04-25T09:57:33;13.83;;;5.43;;
66581;SDS011;53438;48.898;2.308;2023-04-25T10:00:00;12.05;;;5.07;;
66581;SDS011;53438;48.898;2.308;2023-04-25T10:02:28;12.30;;;4.88;;
66581;SDS011;53438;48.898;2.308;2023-04-25T10:04:54;18.03;;;5.03;;
66581;SDS011;53438;48.898;2.308;2023-04-25T10:07:24;17.13;;;5.40;;
66581;SDS011;53438;48.898;2.308;2023-04-25T10:10:00;12.68;;;4.45;;
66581;SDS011;53438;48.898;2.308;2023-04-25T10:12:27;12.85;;;4.15;;
66581;SDS011;53438;48.898;2.308;2023-04-25T10:14:54;18.60;;;6.47;;
66581;SDS011;53438;48.898;2.308;2023-04-25T10:17:20;15.65;;;4.10;;
66581;SDS011;53438;48.898;2.308;2023-04-25T10:19:48;14.57;;;4.57;;
66581;SDS011;53438;48.898;2.308;2023-04-25T10:22:23;12.70;;;5.00;;
66581;SDS011;53438;48.898;2.308;2023-04-25T10:24:55;10.85;;;3.80;;
66581;SDS011;53438;48.898;2.308;2023-04-25T10:27:21;10.55;;;3.75;;
66581;SDS011;53438;48.898;2.308;2023-04-25T10:29:59;11.70;;;4.43;;
66581;SDS011;53438;48.898;2.308;2023-04-25T10:32:33;10.45;;;3.90;;
66581;SDS011;53438;48.898;2.308;2023-04-25T10:35:13;11.25;;;4.32;;
66581;SDS011;53438;48.898;2.308;2023-04-25T10:38:00;9.23;;;3.38;;
66581;SDS011;53438;48.898;2.308;2023-04-25T10:40:30;12.18;;;3.42;;
66581;SDS011;53438;48.898;2.308;2023-04-25T10:42:57;8.40;;;3.27;;
66581;SDS011;53438;48.898;2.308;2023-04-25T10:46:01;14.93;;;6.18;;
66581;SDS011;53438;48.898;2.308;2023-04-25T10:48:27;8.60;;;3.05;;
66581;SDS011;53438;48.898;2.308;2023-04-25T10:51:27;8.82;;;2.97;;
66581;SDS011;53438;48.898;2.308;2023-04-25T10:56:25;13.23;;;2.90;;
66581;SDS011;53438;48.898;2.308;2023-04-25T10:59:02;9.23;;;3.30;;
66581;SDS011;53438;48.898;2.308;2023-04-25T11:01:38;7.20;;;3.10;;
66581;SDS011;53438;48.898;2.308;2023-04-25T11:04:21;7.80;;;3.05;;
66581;SDS011;53438;48.898;2.308;2023-04-25T11:09:47;12.77;;;3.77;;
66581;SDS011;53438;48.898;2.308;2023-04-25T11:12:13;8.77;;;3.05;;
66581;SDS011;53438;48.898;2.308;2023-04-25T11:14:39;9.20;;;3.38;;
66581;SDS011;53438;48.898;2.308;2023-04-25T11:17:05;12.90;;;3.70;;
66581;SDS011;53438;48.898;2.308;2023-04-25T11:19:31;12.45;;;3.63;;
66581;SDS011;53438;48.898;2.308;2023-04-25T11:21:57;12.57;;;4.57;;
66581;SDS011;53438;48.898;2.308;2023-04-25T11:24:27;14.05;;;4.05;;
66581;SDS011;53438;48.898;2.308;2023-04-25T11:26:53;10.70;;;3.15;;
66581;SDS011;53438;48.898;2.308;2023-04-25T11:29:18;7.00;;;3.17;;
66581;SDS011;53438;48.898;2.308;2023-04-25T11:31:47;10.77;;;2.78;;
66581;SDS011;53438;48.898;2.308;2023-04-25T11:34:16;9.10;;;3.20;;
66581;SDS011;53438;48.898;2.308;2023-04-25T11:36:42;5.75;;;2.78;;
66581;SDS011;53438;48.898;2.308;2023-04-25T11:39:07;9.57;;;3.50;;
66581;SDS011;53438;48.898;2.308;2023-04-25T11:41:35;7.43;;;2.67;;
66581;SDS011;53438;48.898;2.308;2023-04-25T11:44:02;7.63;;;2.97;;
66581;SDS011;53438;48.898;2.308;2023-04-25T11:46:28;10.52;;;3.00;;
66581;SDS011;53438;48.898;2.308;2023-04-25T11:48:53;5.30;;;2.57;;
66581;SDS011;53438;48.898;2.308;2023-04-25T11:51:21;12.85;;;2.80;;
66581;SDS011;53438;48.898;2.308;2023-04-25T11:53:46;10.88;;;3.20;;
66581;SDS011;53438;48.898;2.308;2023-04-25T11:56:12;10.47;;;3.27;;
66581;SDS011;53438;48.898;2.308;2023-04-25T12:01:39;7.38;;;2.97;;
66581;SDS011;53438;48.898;2.308;2023-04-25T12:06:40;11.23;;;3.70;;
66581;SDS011;53438;48.898;2.308;2023-04-25T12:09:08;10.07;;;3.30;;
66581;SDS011;53438;48.898;2.308;2023-04-25T12:11:44;11.93;;;3.27;;
66581;SDS011;53438;48.898;2.308;2023-04-25T12:14:11;19.40;;;7.20;;
66581;SDS011;53438;48.898;2.308;2023-04-25T12:16:40;10.88;;;3.85;;
66581;SDS011;53438;48.898;2.308;2023-04-25T12:19:09;9.88;;;3.75;;
66581;SDS011;53438;48.898;2.308;2023-04-25T12:21:35;11.23;;;3.70;;
66581;SDS011;53438;48.898;2.308;2023-04-25T12:26:49;13.18;;;3.63;;
66581;SDS011;53438;48.898;2.308;2023-04-25T12:29:17;10.57;;;3.60;;
66581;SDS011;53438;48.898;2.308;2023-04-25T12:31:43;11.02;;;3.70;;
66581;SDS011;53438;48.898;2.308;2023-04-25T12:34:09;10.57;;;4.30;;
66581;SDS011;53438;48.898;2.308;2023-04-25T12:36:35;10.07;;;3.90;;
66581;SDS011;53438;48.898;2.308;2023-04-25T12:39:00;8.23;;;3.43;;
66581;SDS011;53438;48.898;2.308;2023-04-25T12:41:29;9.77;;;3.78;;
66581;SDS011;53438;48.898;2.308;2023-04-25T12:43:54;11.80;;;3.78;;
66581;SDS011;53438;48.898;2.308;2023-04-25T12:46:20;11.07;;;4.10;;
66581;SDS011;53438;48.898;2.308;2023-04-25T12:48:46;10.40;;;3.70;;
66581;SDS011;53438;48.898;2.308;2023-04-25T12:51:11;11.50;;;3.45;;
66581;SDS011;53438;48.898;2.308;2023-04-25T12:53:36;8.83;;;3.33;;
66581;SDS011;53438;48.898;2.308;2023-04-25T12:56:03;12.87;;;3.77;;
66581;SDS011;53438;48.898;2.308;2023-04-25T12:58:29;6.35;;;3.20;;
66581;SDS011;53438;48.898;2.308;2023-04-25T13:00:55;15.30;;;3.63;;
66581;SDS011;53438;48.898;2.308;2023-04-25T13:03:20;13.30;;;4.67;;
66581;SDS011;53438;48.898;2.308;2023-04-25T13:05:46;11.77;;;3.50;;
66581;SDS011;53438;48.898;2.308;2023-04-25T13:08:11;12.17;;;4.07;;
66581;SDS011;53438;48.898;2.308;2023-04-25T13:10:37;12.70;;;4.43;;
66581;SDS011;53438;48.898;2.308;2023-04-25T13:13:04;14.37;;;4.87;;
66581;SDS011;53438;48.898;2.308;2023-04-25T13:15:29;12.68;;;4.88;;
66581;SDS011;53438;48.898;2.308;2023-04-25T13:17:55;27.30;;;15.60;;
66581;SDS011;53438;48.898;2.308;2023-04-25T13:20:20;14.77;;;6.20;;
66581;SDS011;53438;48.898;2.308;2023-04-25T13:22:47;12.97;;;3.37;;
66581;SDS011;53438;48.898;2.308;2023-04-25T13:25:12;11.13;;;3.70;;
66581;SDS011;53438;48.898;2.308;2023-04-25T13:27:38;9.57;;;3.03;;
66581;SDS011;53438;48.898;2.308;2023-04-25T13:30:06;10.43;;;3.43;;
66581;SDS011;53438;48.898;2.308;2023-04-25T13:32:38;11.00;;;4.35;;
66581;SDS011;53438;48.898;2.308;2023-04-25T13:35:04;13.20;;;3.70;;
66581;SDS011;53438;48.898;2.308;2023-04-25T13:37:34;8.93;;;3.55;;
66581;SDS011;53438;48.898;2.308;2023-04-25T13:40:00;8.27;;;3.90;;
66581;SDS011;53438;48.898;2.308;2023-04-25T13:42:30;7.97;;;3.45;;
66581;SDS011;53438;48.898;2.308;2023-04-25T13:45:16;7.55;;;3.10;;
66581;SDS011;53438;48.898;2.308;2023-04-25T13:47:41;8.30;;;3.37;;
66581;SDS011;53438;48.898;2.308;2023-04-25T13:50:07;10.70;;;3.13;;
66581;SDS011;53438;48.898;2.308;2023-04-25T13:52:32;7.00;;;3.10;;
66581;SDS011;53438;48.898;2.308;2023-04-25T13:54:59;6.43;;;2.55;;
66581;SDS011;53438;48.898;2.308;2023-04-25T13:57:26;6.47;;;2.38;;
66581;SDS011;53438;48.898;2.308;2023-04-25T13:59:51;10.87;;;2.93;;
66581;SDS011;53438;48.898;2.308;2023-04-25T14:02:17;6.85;;;3.17;;
66581;SDS011;53438;48.898;2.308;2023-04-25T14:04:43;8.13;;;2.93;;
66581;SDS011;53438;48.898;2.308;2023-04-25T14:07:08;7.83;;;3.30;;
66581;SDS011;53438;48.898;2.308;2023-04-25T14:09:35;8.75;;;2.40;;
66581;SDS011;53438;48.898;2.308;2023-04-25T14:12:01;7.97;;;2.67;;
66581;SDS011;53438;48.898;2.308;2023-04-25T14:14:27;7.80;;;2.40;;
66581;SDS011;53438;48.898;2.308;2023-04-25T14:16:52;6.27;;;2.70;;
66581;SDS011;53438;48.898;2.308;2023-04-25T14:19:19;7.03;;;2.33;;
66581;SDS011;53438;48.898;2.308;2023-04-25T14:21:45;8.45;;;2.30;;
66581;SDS011;53438;48.898;2.308;2023-04-25T14:24:11;8.52;;;2.60;;
66581;SDS011;53438;48.898;2.308;2023-04-25T14:26:36;7.33;;;2.47;;
66581;SDS011;53438;48.898;2.308;2023-04-25T14:29:02;9.33;;;2.63;;
66581;SDS011;53438;48.898;2.308;2023-04-25T14:31:32;8.55;;;3.10;;
66581;SDS011;53438;48.898;2.308;2023-04-25T14:33:57;8.18;;;3.03;;
66581;SDS011;53438;48.898;2.308;2023-04-25T14:36:23;7.27;;;2.30;;
66581;SDS011;53438;48.898;2.308;2023-04-25T14:38:51;5.55;;;2.00;;
66581;SDS011;53438;48.898;2.308;2023-04-25T14:41:16;8.33;;;2.20;;
66581;SDS011;53438;48.898;2.308;2023-04-25T14:43:42;13.20;;;3.20;;
66581;SDS011;53438;48.898;2.308;2023-04-25T14:46:08;10.03;;;3.00;;
66581;SDS011;53438;48.898;2.308;2023-04-25T14:48:34;9.45;;;2.95;;
66581;SDS011;53438;48.898;2.308;2023-04-25T14:51:00;12.45;;;2.45;;
66581;SDS011;53438;48.898;2.308;2023-04-25T14:53:25;6.97;;;2.00;;
66581;SDS011;53438;48.898;2.308;2023-04-25T14:55:52;8.40;;;2.05;;
66581;SDS011;53438;48.898;2.308;2023-04-25T14:58:18;8.63;;;2.27;;
66581;SDS011;53438;48.898;2.308;2023-04-25T15:00:43;4.53;;;1.77;;
66581;SDS011;53438;48.898;2.308;2023-04-25T15:03:09;6.80;;;2.00;;
66581;SDS011;53438;48.898;2.308;2023-04-25T15:05:36;7.22;;;2.10;;
66581;SDS011;53438;48.898;2.308;2023-04-25T15:08:02;7.50;;;2.50;;
66581;SDS011;53438;48.898;2.308;2023-04-25T15:10:28;8.52;;;2.47;;
66581;SDS011;53438;48.898;2.308;2023-04-25T15:12:53;5.30;;;2.30;;
66581;SDS011;53438;48.898;2.308;2023-04-25T15:15:18;6.47;;;2.77;;
66581;SDS011;53438;48.898;2.308;2023-04-25T15:17:44;9.65;;;2.60;;
66581;SDS011;53438;48.898;2.308;2023-04-25T15:20:10;13.43;;;3.50;;
66581;SDS011;53438;48.898;2.308;2023-04-25T15:22:41;10.02;;;3.47;;
66581;SDS011;53438;48.898;2.308;2023-04-25T15:25:08;8.23;;;3.23;;
66581;SDS011;53438;48.898;2.308;2023-04-25T15:27:35;8.95;;;3.00;;
66581;SDS011;53438;48.898;2.308;2023-04-25T15:30:09;9.95;;;4.18;;
66581;SDS011;53438;48.898;2.308;2023-04-25T15:32:40;10.05;;;3.35;;
66581;SDS011;53438;48.898;2.308;2023-04-25T15:35:05;9.47;;;2.73;;
66581;SDS011;53438;48.898;2.308;2023-04-25T15:37:32;10.00;;;4.43;;
66581;SDS011;53438;48.898;2.308;2023-04-25T15:40:01;6.30;;;3.28;;
66581;SDS011;53438;48.898;2.308;2023-04-25T15:42:35;10.07;;;3.30;;
66581;SDS011;53438;48.898;2.308;2023-04-25T15:45:02;9.27;;;3.47;;
66581;SDS011;53438;48.898;2.308;2023-04-25T15:47:29;11.70;;;3.35;;
66581;SDS011;53438;48.898;2.308;2023-04-25T15:49:54;7.93;;;3.53;;
66581;SDS011;53438;48.898;2.308;2023-04-25T15:52:19;9.17;;;3.70;;
66581;SDS011;53438;48.898;2.308;2023-04-25T15:54:46;7.95;;;3.13;;
66581;SDS011;53438;48.898;2.308;2023-04-25T15:57:11;8.13;;;2.53;;
66581;SDS011;53438;48.898;2.308;2023-04-25T15:59:37;8.27;;;2.70;;
66581;SDS011;53438;48.898;2.308;2023-04-25T16:02:02;7.83;;;2.87;;
66581;SDS011;53438;48.898;2.308;2023-04-25T16:04:28;15.17;;;3.70;;
66581;SDS011;53438;48.898;2.308;2023-04-25T16:06:59;10.98;;;4.38;;
66581;SDS011;53438;48.898;2.308;2023-04-25T16:09:24;11.52;;;5.57;;
66581;SDS011;53438;48.898;2.308;2023-04-25T16:11:51;8.47;;;2.77;;
66581;SDS011;53438;48.898;2.308;2023-04-25T16:14:17;8.25;;;2.67;;
66581;SDS011;53438;48.898;2.308;2023-04-25T16:16:42;4.30;;;3.07;;
66581;SDS011;53438;48.898;2.308;2023-04-25T16:19:08;5.78;;;2.28;;
66581;SDS011;53438;48.898;2.308;2023-04-25T16:21:34;8.23;;;2.50;;
66581;SDS011;53438;48.898;2.308;2023-04-25T16:23:59;5.37;;;2.10;;
66581;SDS011;53438;48.898;2.308;2023-04-25T16:26:25;9.80;;;3.15;;
66581;SDS011;53438;48.898;2.308;2023-04-25T16:28:50;6.93;;;2.38;;
66581;SDS011;53438;48.898;2.308;2023-04-25T16:31:16;7.90;;;2.93;;
66581;SDS011;53438;48.898;2.308;2023-04-25T16:33:42;9.82;;;3.00;;
66581;SDS011;53438;48.898;2.308;2023-04-25T16:36:07;5.63;;;2.07;;
66581;SDS011;53438;48.898;2.308;2023-04-25T16:38:33;6.70;;;2.10;;
66581;SDS011;53438;48.898;2.308;2023-04-25T16:40:58;8.82;;;3.28;;
66581;SDS011;53438;48.898;2.308;2023-04-25T16:43:25;5.03;;;2.30;;
66581;SDS011;53438;48.898;2.308;2023-04-25T16:45:50;9.80;;;2.73;;
66581;SDS011;53438;48.898;2.308;2023-04-25T16:48:16;7.10;;;2.33;;
66581;SDS011;53438;48.898;2.308;2023-04-25T16:50:43;6.03;;;2.60;;
66581;SDS011;53438;48.898;2.308;2023-04-25T16:53:09;5.27;;;2.03;;
66581;SDS011;53438;48.898;2.308;2023-04-25T16:55:34;5.82;;;2.15;;
66581;SDS011;53438;48.898;2.308;2023-04-25T16:58:00;7.88;;;2.70;;
66581;SDS011;53438;48.898;2.308;2023-04-25T17:00:25;8.60;;;2.63;;
66581;SDS011;53438;48.898;2.308;2023-04-25T17:02:51;6.27;;;2.23;;
66581;SDS011;53438;48.898;2.308;2023-04-25T17:05:16;7.68;;;2.85;;
66581;SDS011;53438;48.898;2.308;2023-04-25T17:07:42;5.23;;;2.37;;
66581;SDS011;53438;48.898;2.308;2023-04-25T17:10:07;7.10;;;2.37;;
66581;SDS011;53438;48.898;2.308;2023-04-25T17:12:33;5.82;;;2.60;;
66581;SDS011;53438;48.898;2.308;2023-04-25T17:14:58;7.43;;;2.50;;
66581;SDS011;53438;48.898;2.308;2023-04-25T17:17:25;8.98;;;2.85;;
66581;SDS011;53438;48.898;2.308;2023-04-25T17:19:50;4.97;;;2.17;;
66581;SDS011;53438;48.898;2.308;2023-04-25T17:22:16;8.60;;;2.80;;
66581;SDS011;53438;48.898;2.308;2023-04-25T17:24:41;4.30;;;2.00;;
66581;SDS011;53438;48.898;2.308;2023-04-25T17:27:06;5.07;;;2.10;;
66581;SDS011;53438;48.898;2.308;2023-04-25T17:29:32;6.72;;;2.47;;
66581;SDS011;53438;48.898;2.308;2023-04-25T17:31:58;8.10;;;2.63;;
66581;SDS011;53438;48.898;2.308;2023-04-25T17:34:24;9.47;;;3.13;;
66581;SDS011;53438;48.898;2.308;2023-04-25T17:36:50;6.40;;;1.97;;
66581;SDS011;53438;48.898;2.308;2023-04-25T17:39:15;9.63;;;2.17;;
66581;SDS011;53438;48.898;2.308;2023-04-25T17:41:41;10.70;;;2.60;;
66581;SDS011;53438;48.898;2.308;2023-04-25T17:44:08;8.95;;;3.47;;
66581;SDS011;53438;48.898;2.308;2023-04-25T17:46:33;10.70;;;4.20;;
66581;SDS011;53438;48.898;2.308;2023-04-25T17:48:58;11.57;;;2.60;;
66581;SDS011;53438;48.898;2.308;2023-04-25T17:51:24;7.55;;;2.47;;